createdAt,value
2019-06-07T00:08:43.999Z,13.30
2019-06-07T00:11:20.709Z,13.20
2019-06-07T00:17:55.596Z,13.20
2019-06-07T00:20:27.116Z,13.20
2019-06-07T00:22:59.980Z,13.10
2019-06-07T00:25:30.700Z,13.00
2019-06-07T00:28:00.194Z,12.90
2019-06-07T00:30:40.907Z,12.90
2019-06-07T00:33:01.866Z,12.80
2019-06-07T00:35:32.825Z,12.80
2019-06-07T00:38:05.378Z,12.70
2019-06-07T00:40:43.366Z,12.70
2019-06-07T00:43:17.606Z,12.70
2019-06-07T00:45:48.514Z,12.80
2019-06-07T00:48:27.382Z,12.70
2019-06-07T00:50:51.589Z,12.70
2019-06-07T00:53:31.776Z,12.60
2019-06-07T00:56:01.771Z,12.60
2019-06-07T00:58:46.508Z,12.60
2019-06-07T01:01:28.434Z,12.60
2019-06-07T01:04:29.233Z,12.50
2019-06-07T01:10:51.585Z,12.40
2019-06-07T01:13:24.294Z,12.40
2019-06-07T01:16:00.276Z,12.40
2019-06-07T01:18:45.987Z,12.30
2019-06-07T01:25:47.081Z,12.30
2019-06-07T01:28:23.592Z,12.20
2019-06-07T01:30:54.776Z,12.20
2019-06-07T01:40:09.037Z,12.10
2019-06-07T02:13:50.648Z,12.00
2019-06-07T02:23:51.219Z,11.90
2019-06-07T02:27:33.032Z,11.90
2019-06-07T02:37:07.452Z,11.90
2019-06-07T02:39:48.842Z,11.90
2019-06-07T02:42:20.183Z,11.90
2019-06-07T02:44:50.942Z,11.80
2019-06-07T02:47:25.174Z,11.80
2019-06-07T02:49:54.614Z,11.80
2019-06-07T02:52:30.697Z,11.80
2019-06-07T02:54:56.306Z,11.80
2019-06-07T02:57:29.372Z,11.80
2019-06-07T03:00:16.541Z,11.70
2019-06-07T03:02:40.360Z,11.70
2019-06-07T03:05:03.777Z,11.70
2019-06-07T03:07:40.423Z,11.70
2019-06-07T03:10:12.069Z,11.70
2019-06-07T03:12:42.951Z,11.60
2019-06-07T03:15:30.105Z,11.60
2019-06-07T03:17:53.409Z,11.60
2019-06-07T03:20:23.967Z,11.60
2019-06-07T03:22:54.419Z,11.50
2019-06-07T03:25:25.798Z,11.50
2019-06-07T03:27:56.327Z,11.50
2019-06-07T03:30:57.874Z,11.50
2019-06-07T03:33:09.527Z,11.50
2019-06-07T03:35:45.303Z,11.50
2019-06-07T03:38:27.559Z,11.40
2019-06-07T03:41:14.806Z,11.40
2019-06-07T03:44:07.804Z,11.30
2019-06-07T03:46:42.066Z,11.30
2019-06-07T03:49:12.601Z,11.30
2019-06-07T03:51:44.578Z,11.30
2019-06-07T03:54:39.797Z,11.30
2019-06-07T03:57:11.033Z,11.30
2019-06-07T03:59:41.589Z,11.30
2019-06-07T04:02:14.828Z,11.40
2019-06-07T04:05:05.863Z,11.40
2019-06-07T04:07:44.583Z,11.50
2019-06-07T04:10:17.779Z,11.50
2019-06-07T04:13:16.108Z,11.50
2019-06-07T04:16:08.547Z,11.50
2019-06-07T04:18:41.867Z,11.50
2019-06-07T04:21:15.944Z,11.50
2019-06-07T04:24:52.293Z,11.50
2019-06-07T04:31:34.483Z,11.60
2019-06-07T04:34:06.371Z,11.70
2019-06-07T04:36:52.746Z,11.60
2019-06-07T04:42:49.016Z,11.70
2019-06-07T04:45:51.148Z,11.70
2019-06-07T04:49:17.727Z,11.80
2019-06-07T04:51:50.724Z,11.80
2019-06-07T04:54:20.449Z,12.00
2019-06-07T04:57:17.058Z,12.10
2019-06-07T05:00:12.114Z,12.20
2019-06-07T05:02:18.279Z,12.40
2019-06-07T05:04:50.916Z,12.50
2019-06-07T05:07:20.600Z,12.60
2019-06-07T05:09:50.254Z,12.60
2019-06-07T05:12:20.749Z,12.70
2019-06-07T05:14:50.390Z,12.70
2019-06-07T05:17:19.891Z,12.80
2019-06-07T05:19:49.342Z,12.90
2019-06-07T05:22:18.789Z,13.00
2019-06-07T05:24:48.355Z,13.10
2019-06-07T05:27:19.003Z,13.20
2019-06-07T05:30:08.846Z,13.20
2019-06-07T05:32:21.771Z,13.40
2019-06-07T05:34:51.092Z,13.40
2019-06-07T05:37:20.733Z,13.60
2019-06-07T05:39:50.374Z,13.70
2019-06-07T05:42:19.756Z,13.90
2019-06-07T05:44:49.543Z,14.00
2019-06-07T05:47:18.864Z,14.10
2019-06-07T05:49:48.209Z,14.20
2019-06-07T05:52:17.834Z,14.30
2019-06-07T05:54:49.838Z,14.40
2019-06-07T05:57:19.910Z,14.40
2019-06-07T05:59:50.545Z,14.40
2019-06-07T06:02:24.866Z,14.40
2019-06-07T06:04:51.163Z,14.50
2019-06-07T06:07:21.759Z,14.60
2019-06-07T06:09:52.940Z,14.60
2019-06-07T06:12:34.655Z,14.70
2019-06-07T06:14:54.800Z,14.80
2019-06-07T06:17:24.272Z,14.90
2019-06-07T06:19:56.741Z,15.00
2019-06-07T06:22:26.965Z,15.00
2019-06-07T06:28:03.136Z,15.00
2019-06-07T06:29:59.608Z,14.90
2019-06-07T06:32:54.364Z,15.00
2019-06-07T06:35:00.283Z,15.10
2019-06-07T06:37:29.977Z,15.10
2019-06-07T06:39:59.396Z,15.20
2019-06-07T06:42:28.838Z,15.20
2019-06-07T06:44:59.296Z,15.20
2019-06-07T06:47:28.673Z,15.30
2019-06-07T06:49:58.258Z,15.30
2019-06-07T06:52:28.235Z,15.30
2019-06-07T06:55:00.841Z,15.40
2019-06-07T06:57:30.039Z,15.40
2019-06-07T06:59:59.525Z,15.50
2019-06-07T07:02:28.995Z,15.60
2019-06-07T07:04:58.567Z,15.70
2019-06-07T07:07:28.843Z,15.70
2019-06-07T07:10:00.629Z,15.70
2019-06-07T07:12:30.404Z,15.80
2019-06-07T07:15:00.687Z,15.90
2019-06-07T07:17:47.877Z,15.90
2019-06-07T07:20:02.526Z,15.90
2019-06-07T07:22:31.948Z,15.90
2019-06-07T07:25:01.564Z,16.10
2019-06-07T07:27:31.080Z,16.50
2019-06-07T07:30:35.483Z,16.60
2019-06-07T07:32:33.798Z,16.80
2019-06-07T07:35:03.278Z,17.00
2019-06-07T07:37:32.968Z,17.30
2019-06-07T07:40:54.868Z,17.40
2019-06-07T07:42:33.502Z,17.20
2019-06-07T07:45:03.071Z,17.00
2019-06-07T07:47:32.329Z,17.10
2019-06-07T07:50:02.012Z,17.10
2019-06-07T07:52:31.332Z,17.00
2019-06-07T07:55:01.000Z,17.00
2019-06-07T07:57:31.632Z,17.00
2019-06-07T08:00:36.217Z,17.00
2019-06-07T08:02:32.292Z,17.20
2019-06-07T08:05:21.818Z,17.40
2019-06-07T08:07:35.303Z,17.70
2019-06-07T08:10:05.987Z,17.90
2019-06-07T08:13:00.510Z,18.10
2019-06-07T08:15:11.898Z,18.20
2019-06-07T08:17:41.170Z,18.20
2019-06-07T08:20:12.878Z,18.20
2019-06-07T08:22:42.332Z,18.00
2019-06-07T08:25:11.875Z,18.10
2019-06-07T08:27:49.408Z,18.20
2019-06-07T08:32:55.934Z,18.80
2019-06-07T08:38:25.833Z,18.50
2019-06-07T08:40:30.121Z,18.30
2019-06-07T08:43:11.932Z,18.50
2019-06-07T08:45:31.018Z,18.70
2019-06-07T08:48:05.403Z,19.00
2019-06-07T08:50:31.351Z,18.90
2019-06-07T08:53:11.566Z,18.80
2019-06-07T08:55:35.424Z,18.70
2019-06-07T08:58:08.465Z,18.70
2019-06-07T09:00:47.262Z,18.90
2019-06-07T09:03:07.885Z,19.10
2019-06-07T09:05:37.478Z,19.20
2019-06-07T09:08:28.518Z,19.30
2019-06-07T09:10:38.953Z,19.50
2019-06-07T09:13:11.989Z,19.40
2019-06-07T09:15:41.639Z,19.50
2019-06-07T09:20:47.343Z,19.70
2019-06-07T09:23:17.776Z,19.80
2019-06-07T09:25:57.242Z,19.70
2019-06-07T09:28:20.839Z,19.70
2019-06-07T09:30:50.618Z,19.80
2019-06-07T09:33:20.039Z,20.00
2019-06-07T09:35:49.569Z,20.00
2019-06-07T09:38:25.627Z,20.00
2019-06-07T09:40:50.178Z,20.00
2019-06-07T09:43:59.962Z,20.00
2019-06-07T09:45:50.867Z,20.30
2019-06-07T09:49:01.506Z,20.30
2019-06-07T09:50:54.769Z,20.40
2019-06-07T09:53:24.291Z,20.30
2019-06-07T09:55:53.819Z,20.30
2019-06-07T09:58:51.209Z,20.40
2019-06-07T10:00:59.176Z,20.40
2019-06-07T10:03:26.759Z,20.30
2019-06-07T10:05:59.549Z,20.30
2019-06-07T10:09:42.281Z,20.40
2019-06-07T10:10:58.619Z,20.50
2019-06-07T10:13:28.081Z,20.50
2019-06-07T10:15:58.870Z,20.60
2019-06-07T10:18:28.829Z,20.80
2019-06-07T10:20:59.639Z,20.80
2019-06-07T10:23:29.022Z,20.90
2019-06-07T10:25:59.361Z,20.80
2019-06-07T10:28:29.191Z,20.80
2019-06-07T10:31:02.551Z,21.00
2019-06-07T10:33:33.162Z,21.00
2019-06-07T10:36:02.642Z,20.80
2019-06-07T10:38:32.218Z,20.80
2019-06-07T10:41:02.782Z,21.00
2019-06-07T10:43:34.160Z,21.10
2019-06-07T10:46:03.733Z,21.20
2019-06-07T10:48:33.065Z,21.30
2019-06-07T10:51:04.084Z,21.20
2019-06-07T10:53:33.973Z,21.30
2019-06-07T10:56:04.865Z,21.40
2019-06-07T10:58:34.836Z,21.50
2019-06-07T11:01:05.230Z,21.60
2019-06-07T11:03:35.136Z,21.60
2019-06-07T11:06:05.683Z,21.70
2019-06-07T11:08:35.377Z,21.60
2019-06-07T11:11:06.029Z,21.70
2019-06-07T11:13:36.227Z,21.80
2019-06-07T11:16:06.892Z,21.90
2019-06-07T11:18:36.680Z,21.90
2019-06-07T11:21:06.220Z,22.00
2019-06-07T11:23:36.881Z,22.10
2019-06-07T11:26:08.393Z,22.10
2019-06-07T11:28:38.173Z,22.40
2019-06-07T11:31:08.393Z,22.40
2019-06-07T11:33:38.305Z,22.40
2019-06-07T11:36:08.458Z,22.40
2019-06-07T11:38:38.444Z,22.50
2019-06-07T11:41:07.855Z,22.60
2019-06-07T11:43:37.418Z,22.80
2019-06-07T11:46:06.945Z,22.70
2019-06-07T11:48:36.450Z,22.70
2019-06-07T11:51:06.671Z,22.60
2019-06-07T11:53:36.283Z,22.60
2019-06-07T11:56:07.907Z,22.60
2019-06-07T11:58:37.465Z,22.60
2019-06-07T12:01:07.572Z,22.60
2019-06-07T12:03:37.592Z,22.80
2019-06-07T12:06:08.197Z,22.90
2019-06-07T12:08:37.820Z,22.90
2019-06-07T12:11:08.117Z,23.10
2019-06-07T12:13:37.978Z,23.30
2019-06-07T12:16:08.907Z,23.70
2019-06-07T12:18:38.696Z,23.90
2019-06-07T12:21:09.537Z,24.00
2019-06-07T12:23:39.052Z,24.10
2019-06-07T12:26:08.483Z,24.10
2019-06-07T12:28:39.231Z,24.10
2019-06-07T12:31:08.722Z,24.00
2019-06-07T12:33:38.241Z,23.90
2019-06-07T12:36:07.739Z,23.80
2019-06-07T12:38:37.216Z,23.80
2019-06-07T12:41:06.763Z,23.90
2019-06-07T12:43:36.038Z,23.90
2019-06-07T12:46:06.597Z,23.90
2019-06-07T12:48:37.783Z,23.90
2019-06-07T12:51:07.283Z,23.70
2019-06-07T12:53:36.787Z,23.50
2019-06-07T12:56:06.365Z,23.30
2019-06-07T12:58:39.363Z,23.10
2019-06-07T13:01:06.895Z,22.90
2019-06-07T13:03:37.720Z,22.80
2019-06-07T13:06:07.271Z,22.70
2019-06-07T13:08:36.629Z,22.60
2019-06-07T13:11:16.106Z,22.50
2019-06-07T13:13:37.770Z,22.40
2019-06-07T13:16:07.274Z,22.40
2019-06-07T13:18:36.710Z,22.30
2019-06-07T13:21:09.343Z,22.20
2019-06-07T13:23:39.024Z,22.10
2019-06-07T13:26:09.323Z,22.00
2019-06-07T13:28:38.869Z,21.90
2019-06-07T13:31:08.411Z,21.90
2019-06-07T13:33:38.937Z,22.00
2019-06-07T13:36:09.174Z,22.10
2019-06-07T13:38:39.869Z,22.20
2019-06-07T13:41:30.192Z,22.30
2019-06-07T13:43:46.915Z,22.40
2019-06-07T13:46:16.936Z,22.40
2019-06-07T13:48:48.008Z,22.50
2019-06-07T13:51:18.922Z,22.40
2019-06-07T13:53:48.609Z,22.40
2019-06-07T13:56:18.261Z,22.30
2019-06-07T13:58:48.862Z,22.20
2019-06-07T14:01:20.486Z,22.30
2019-06-07T14:03:49.945Z,22.20
2019-06-07T14:06:20.890Z,22.20
2019-06-07T14:08:50.151Z,22.10
2019-06-07T14:11:19.805Z,22.00
2019-06-07T14:13:51.257Z,21.90
2019-06-07T14:16:24.331Z,21.90
2019-06-07T14:18:54.458Z,21.80
2019-06-07T14:21:24.612Z,21.80
2019-06-07T14:23:54.230Z,21.70
2019-06-07T14:26:23.784Z,21.70
2019-06-07T14:28:53.568Z,21.60
2019-06-07T14:31:24.537Z,21.60
2019-06-07T14:33:55.747Z,21.60
2019-06-07T14:37:06.669Z,21.80
2019-06-07T14:39:38.849Z,21.70
2019-06-07T14:42:16.560Z,21.40
2019-06-07T14:44:57.000Z,21.10
2019-06-07T14:47:31.988Z,21.00
2019-06-07T14:50:22.189Z,20.60
2019-06-07T14:55:53.024Z,20.10
2019-06-07T14:58:43.413Z,19.80
2019-06-07T15:01:13.684Z,19.70
2019-06-07T15:03:47.555Z,19.50
2019-06-07T15:06:22.818Z,19.10
2019-06-07T15:08:52.223Z,18.90
2019-06-07T15:11:26.742Z,18.70
2019-06-07T15:13:56.107Z,18.70
2019-06-07T15:16:41.090Z,18.70
2019-06-07T15:19:11.349Z,18.80
2019-06-07T15:21:41.804Z,18.70
2019-06-07T15:24:11.621Z,18.60
2019-06-07T15:26:45.003Z,18.60
2019-06-07T15:29:17.418Z,18.60
2019-06-07T15:31:46.997Z,18.60
2019-06-07T15:34:16.452Z,18.60
2019-06-07T15:36:45.908Z,18.60
2019-06-07T15:39:15.602Z,18.60
2019-06-07T15:41:44.970Z,18.60
2019-06-07T15:44:14.678Z,18.40
2019-06-07T15:46:46.136Z,18.30
2019-06-07T15:49:15.541Z,18.30
2019-06-07T15:51:45.207Z,18.20
2019-06-07T15:54:14.690Z,18.10
2019-06-07T15:56:46.435Z,18.00
2019-06-07T15:59:20.364Z,17.90
2019-06-07T16:01:50.011Z,17.90
2019-06-07T16:04:20.840Z,17.80
2019-06-07T16:06:50.350Z,17.60
2019-06-07T16:09:19.854Z,17.50
2019-06-07T16:11:49.238Z,17.30
2019-06-07T16:14:18.919Z,17.20
2019-06-07T16:16:49.425Z,17.20
2019-06-07T16:19:20.600Z,17.10
2019-06-07T16:21:50.215Z,17.10
2019-06-07T16:24:19.763Z,17.10
2019-06-07T16:26:55.323Z,17.00
2019-06-07T16:29:24.957Z,16.90
2019-06-07T16:31:54.259Z,16.70
2019-06-07T16:34:24.572Z,16.50
2019-06-07T16:36:55.037Z,16.30
2019-06-07T16:39:24.449Z,16.10
2019-06-07T16:41:54.833Z,16.00
2019-06-07T16:44:24.261Z,16.00
2019-06-07T16:46:53.905Z,15.90
2019-06-07T16:49:23.355Z,15.70
2019-06-07T16:51:54.833Z,15.70
2019-06-07T16:54:25.469Z,15.60
2019-06-07T16:56:55.155Z,15.60
2019-06-07T16:59:24.587Z,15.60
2019-06-07T17:01:54.159Z,15.60
2019-06-07T17:04:24.019Z,15.60
2019-06-07T17:06:53.498Z,15.60
2019-06-07T17:09:23.061Z,15.60
2019-06-07T17:11:52.579Z,15.70
2019-06-07T17:14:22.174Z,15.80
2019-06-07T17:16:51.718Z,15.90
2019-06-07T17:19:24.071Z,16.00
2019-06-07T17:21:53.487Z,16.20
2019-06-07T17:24:26.602Z,16.30
2019-06-07T17:26:54.227Z,16.20
2019-06-07T17:29:23.569Z,16.00
2019-06-07T17:31:53.153Z,15.90
2019-06-07T17:34:22.706Z,15.90
2019-06-07T17:36:52.179Z,15.80
2019-06-07T17:39:21.679Z,15.80
2019-06-07T17:42:01.455Z,15.80
2019-06-07T17:44:22.245Z,15.80
2019-06-07T17:46:51.928Z,15.80
2019-06-07T17:49:21.247Z,15.70
2019-06-07T17:51:52.051Z,15.70
2019-06-07T17:54:21.728Z,15.70
2019-06-07T17:56:53.425Z,15.80
2019-06-07T17:59:22.950Z,15.70
2019-06-07T18:02:13.558Z,15.70
2019-06-07T18:04:23.619Z,15.70
2019-06-07T18:06:57.674Z,15.90
2019-06-07T18:09:29.904Z,16.00
2019-06-07T18:11:59.540Z,16.10
2019-06-07T18:14:28.978Z,16.10
2019-06-07T18:16:58.524Z,16.10
2019-06-07T18:19:28.903Z,16.20
2019-06-07T18:21:59.063Z,16.20
2019-06-07T18:24:28.884Z,16.20
2019-06-07T18:26:58.905Z,16.00
2019-06-07T18:29:28.683Z,16.00
2019-06-07T18:32:00.328Z,15.90
2019-06-07T18:34:30.804Z,16.00
2019-06-07T18:37:00.273Z,16.00
2019-06-07T18:39:29.908Z,16.10
2019-06-07T18:41:59.491Z,16.10
2019-06-07T18:44:28.850Z,16.10
2019-06-07T18:46:58.534Z,16.10
2019-06-07T18:49:27.833Z,16.00
2019-06-07T18:52:15.719Z,16.00
2019-06-07T18:54:46.678Z,16.00
2019-06-07T18:57:16.336Z,16.00
2019-06-07T18:59:46.028Z,15.90
2019-06-07T19:02:15.604Z,15.90
2019-06-07T19:04:44.981Z,15.90
2019-06-07T19:07:14.542Z,15.90
2019-06-07T19:09:54.973Z,15.80
2019-06-07T19:12:28.410Z,15.70
2019-06-07T19:15:07.080Z,15.60
2019-06-07T19:17:36.816Z,15.60
2019-06-07T19:20:06.579Z,15.60
2019-06-07T19:22:36.069Z,15.50
2019-06-07T19:25:06.471Z,15.50
2019-06-07T19:27:37.183Z,15.50
2019-06-07T19:30:07.995Z,15.50
2019-06-07T19:32:38.602Z,15.50
2019-06-07T19:35:08.860Z,15.50
2019-06-07T19:37:51.774Z,15.50
2019-06-07T19:40:24.517Z,15.40
2019-06-07T19:42:56.511Z,15.40
2019-06-07T19:45:30.707Z,15.30
2019-06-07T19:47:58.684Z,15.30
2019-06-07T19:50:29.611Z,15.20
2019-06-07T19:52:59.309Z,15.20
2019-06-07T19:55:29.754Z,15.20
2019-06-07T19:57:59.634Z,15.20
2019-06-07T20:00:29.552Z,15.20
2019-06-07T20:02:59.919Z,15.10
2019-06-07T20:05:33.842Z,15.10
2019-06-07T20:08:05.266Z,15.00
2019-06-07T20:10:35.035Z,15.00
2019-06-07T20:13:05.830Z,15.00
2019-06-07T20:15:36.895Z,15.00
2019-06-07T20:18:07.691Z,15.00
2019-06-07T20:20:38.507Z,14.90
2019-06-07T20:23:10.945Z,14.90
2019-06-07T20:25:40.535Z,14.90
2019-06-07T20:28:13.606Z,14.90
2019-06-07T20:30:57.622Z,14.90
2019-06-07T20:33:31.037Z,14.90
2019-06-07T20:36:00.880Z,14.90
2019-06-07T20:38:33.282Z,14.90
2019-06-07T20:41:08.941Z,14.90
2019-06-07T20:43:38.578Z,14.90
2019-06-07T20:46:08.248Z,14.90
2019-06-07T20:48:37.922Z,14.90
2019-06-07T20:56:51.173Z,14.90
2019-06-07T20:59:23.468Z,14.90
2019-06-07T21:02:15.093Z,14.90
2019-06-07T21:04:44.758Z,15.00
2019-06-07T21:07:15.541Z,15.00
2019-06-07T21:09:45.488Z,15.00
2019-06-07T21:12:17.590Z,14.90
2019-06-07T21:14:49.502Z,15.00
2019-06-07T21:17:21.244Z,15.00
2019-06-07T21:19:51.214Z,15.00
2019-06-07T21:22:47.677Z,15.00
2019-06-07T21:25:14.777Z,15.10
2019-06-07T21:27:45.050Z,15.10
2019-06-07T21:30:18.472Z,15.20
2019-06-07T21:32:48.116Z,15.10
2019-06-07T21:35:18.157Z,15.20
2019-06-07T21:37:47.482Z,15.20
2019-06-07T21:40:17.888Z,15.20
2019-06-07T21:42:48.138Z,15.30
2019-06-07T21:45:17.850Z,15.30
2019-06-07T21:47:48.948Z,15.30
2019-06-07T21:50:30.201Z,15.40
2019-06-07T21:53:02.459Z,15.40
2019-06-07T21:55:31.989Z,15.50
2019-06-07T21:58:03.066Z,15.50
2019-06-07T22:01:12.345Z,15.60
2019-06-07T22:03:43.535Z,15.60
2019-06-07T22:06:14.145Z,15.60
2019-06-07T22:08:43.614Z,15.60
2019-06-07T22:11:15.432Z,15.60
2019-06-07T22:13:45.916Z,15.50
2019-06-07T22:16:28.604Z,15.60
2019-06-07T22:18:50.128Z,15.60
2019-06-07T22:21:19.592Z,15.60
2019-06-07T22:23:49.215Z,15.60
2019-06-07T22:26:18.573Z,15.60
2019-06-07T22:28:49.801Z,15.60
2019-06-07T22:31:19.382Z,15.60
2019-06-07T22:33:48.798Z,15.60
2019-06-07T22:36:19.502Z,15.60
2019-06-07T22:38:49.108Z,15.50
2019-06-07T22:41:18.940Z,15.60
2019-06-07T22:43:48.507Z,15.50
2019-06-07T22:46:19.325Z,15.50
2019-06-07T22:48:54.375Z,15.50
2019-06-07T22:51:26.223Z,15.50
2019-06-07T22:53:57.753Z,15.50
2019-06-07T22:56:34.141Z,15.40
2019-06-07T22:59:04.822Z,15.40
2019-06-07T23:01:36.489Z,15.40
2019-06-07T23:04:08.371Z,15.40
2019-06-07T23:06:39.433Z,15.40
2019-06-07T23:09:11.269Z,15.40
2019-06-07T23:11:52.561Z,15.40
2019-06-07T23:14:40.607Z,15.40
2019-06-07T23:17:13.886Z,15.40
2019-06-07T23:19:49.721Z,15.40
2019-06-07T23:22:20.289Z,15.40
2019-06-07T23:24:49.787Z,15.40
2019-06-07T23:27:25.859Z,15.30
2019-06-07T23:30:10.698Z,15.30
2019-06-07T23:32:44.196Z,15.30
2019-06-07T23:35:14.859Z,15.40
2019-06-07T23:37:44.786Z,15.30
2019-06-07T23:40:17.255Z,15.30
2019-06-07T23:42:50.539Z,15.30
2019-06-07T23:45:24.356Z,15.30
2019-06-07T23:47:53.816Z,15.30
2019-06-07T23:50:23.400Z,15.30
2019-06-07T23:53:01.265Z,15.30
2019-06-07T23:55:33.609Z,15.30
2019-06-07T23:58:09.020Z,15.30
